sensor_id;sensor_type;location;lat;lon;timestamp;temperature;humidity
30150;DHT22;16962;48.646;9.026;2023-11-21T00:00:51;6.20;99.90
30150;DHT22;16962;48.646;9.026;2023-11-21T00:03:38;6.20;99.90
30150;DHT22;16962;48.646;9.026;2023-11-21T00:06:26;6.20;99.90
30150;DHT22;16962;48.646;9.026;2023-11-21T00:09:15;6.30;99.90
30150;DHT22;16962;48.646;9.026;2023-11-21T00:12:05;6.30;99.90
30150;DHT22;16962;48.646;9.026;2023-11-21T00:14:53;6.30;99.90
30150;DHT22;16962;48.646;9.026;2023-11-21T00:17:44;6.30;99.90
30150;DHT22;16962;48.646;9.026;2023-11-21T00:20:31;6.30;99.90
30150;DHT22;16962;48.646;9.026;2023-11-21T00:23:23;6.30;99.90
30150;DHT22;16962;48.646;9.026;2023-11-21T00:26:11;6.40;99.90
30150;DHT22;16962;48.646;9.026;2023-11-21T00:29:01;6.40;99.90
30150;DHT22;16962;48.646;9.026;2023-11-21T00:31:48;6.40;99.90
30150;DHT22;16962;48.646;9.026;2023-11-21T00:34:36;6.40;99.90
30150;DHT22;16962;48.646;9.026;2023-11-21T00:37:23;6.40;99.90
30150;DHT22;16962;48.646;9.026;2023-11-21T00:40:11;6.40;99.90
30150;DHT22;16962;48.646;9.026;2023-11-21T00:42:59;6.40;99.90
30150;DHT22;16962;48.646;9.026;2023-11-21T00:45:47;6.40;99.90
30150;DHT22;16962;48.646;9.026;2023-11-21T00:48:38;6.40;99.90
30150;DHT22;16962;48.646;9.026;2023-11-21T00:51:25;6.40;99.90
30150;DHT22;16962;48.646;9.026;2023-11-21T00:54:14;6.40;99.90
30150;DHT22;16962;48.646;9.026;2023-11-21T00:57:04;6.50;99.90
30150;DHT22;16962;48.646;9.026;2023-11-21T00:59:55;6.50;99.90
30150;DHT22;16962;48.646;9.026;2023-11-21T01:02:45;6.50;99.90
30150;DHT22;16962;48.646;9.026;2023-11-21T01:05:33;6.50;99.90
30150;DHT22;16962;48.646;9.026;2023-11-21T01:08:21;6.60;99.90
30150;DHT22;16962;48.646;9.026;2023-11-21T01:11:08;6.60;99.90
30150;DHT22;16962;48.646;9.026;2023-11-21T01:13:57;6.60;99.90
30150;DHT22;16962;48.646;9.026;2023-11-21T01:16:44;6.50;99.90
30150;DHT22;16962;48.646;9.026;2023-11-21T01:19:32;6.50;99.90
30150;DHT22;16962;48.646;9.026;2023-11-21T01:22:22;6.50;99.90
30150;DHT22;16962;48.646;9.026;2023-11-21T01:25:13;6.50;99.90
30150;DHT22;16962;48.646;9.026;2023-11-21T01:28:01;6.40;99.90
30150;DHT22;16962;48.646;9.026;2023-11-21T01:30:49;6.40;99.90
30150;DHT22;16962;48.646;9.026;2023-11-21T01:33:36;6.50;99.90
30150;DHT22;16962;48.646;9.026;2023-11-21T01:36:30;6.40;99.90
30150;DHT22;16962;48.646;9.026;2023-11-21T01:39:19;6.40;99.90
30150;DHT22;16962;48.646;9.026;2023-11-21T01:42:10;6.40;99.90
30150;DHT22;16962;48.646;9.026;2023-11-21T01:45:00;6.40;99.90
30150;DHT22;16962;48.646;9.026;2023-11-21T01:47:53;6.50;99.90
30150;DHT22;16962;48.646;9.026;2023-11-21T01:50:43;6.50;99.90
30150;DHT22;16962;48.646;9.026;2023-11-21T01:53:32;6.50;99.90
30150;DHT22;16962;48.646;9.026;2023-11-21T01:56:19;6.40;99.90
30150;DHT22;16962;48.646;9.026;2023-11-21T01:59:09;6.40;99.90
30150;DHT22;16962;48.646;9.026;2023-11-21T02:01:56;6.30;99.90
30150;DHT22;16962;48.646;9.026;2023-11-21T02:04:44;6.30;99.90
30150;DHT22;16962;48.646;9.026;2023-11-21T02:07:31;6.30;99.90
30150;DHT22;16962;48.646;9.026;2023-11-21T02:10:19;6.20;99.90
30150;DHT22;16962;48.646;9.026;2023-11-21T02:13:10;6.20;99.90
30150;DHT22;16962;48.646;9.026;2023-11-21T02:15:58;6.20;99.90
30150;DHT22;16962;48.646;9.026;2023-11-21T02:18:47;6.20;99.90
30150;DHT22;16962;48.646;9.026;2023-11-21T02:21:35;6.20;99.90
30150;DHT22;16962;48.646;9.026;2023-11-21T02:24:29;6.20;99.90
30150;DHT22;16962;48.646;9.026;2023-11-21T02:27:16;6.20;99.90
30150;DHT22;16962;48.646;9.026;2023-11-21T02:30:09;6.20;99.90
30150;DHT22;16962;48.646;9.026;2023-11-21T02:33:01;6.10;99.90
30150;DHT22;16962;48.646;9.026;2023-11-21T02:35:48;6.20;99.90
30150;DHT22;16962;48.646;9.026;2023-11-21T02:38:36;6.20;99.90
30150;DHT22;16962;48.646;9.026;2023-11-21T02:41:23;6.20;99.90
30150;DHT22;16962;48.646;9.026;2023-11-21T02:44:10;6.20;99.90
30150;DHT22;16962;48.646;9.026;2023-11-21T02:46:58;6.20;99.90
30150;DHT22;16962;48.646;9.026;2023-11-21T02:49:50;6.30;99.90
30150;DHT22;16962;48.646;9.026;2023-11-21T02:52:39;6.20;99.90
30150;DHT22;16962;48.646;9.026;2023-11-21T02:55:29;6.20;99.90
30150;DHT22;16962;48.646;9.026;2023-11-21T02:58:18;6.30;99.90
30150;DHT22;16962;48.646;9.026;2023-11-21T03:01:05;6.30;99.90
30150;DHT22;16962;48.646;9.026;2023-11-21T03:03:55;6.30;99.90
30150;DHT22;16962;48.646;9.026;2023-11-21T03:06:45;6.20;99.90
30150;DHT22;16962;48.646;9.026;2023-11-21T03:09:35;6.20;99.90
30150;DHT22;16962;48.646;9.026;2023-11-21T03:12:22;6.20;99.90
30150;DHT22;16962;48.646;9.026;2023-11-21T03:15:09;6.20;99.90
30150;DHT22;16962;48.646;9.026;2023-11-21T03:17:57;6.10;99.90
30150;DHT22;16962;48.646;9.026;2023-11-21T03:20:46;6.10;99.90
30150;DHT22;16962;48.646;9.026;2023-11-21T03:23:34;6.10;99.90
30150;DHT22;16962;48.646;9.026;2023-11-21T03:26:21;6.10;99.90
30150;DHT22;16962;48.646;9.026;2023-11-21T03:29:09;6.10;99.90
30150;DHT22;16962;48.646;9.026;2023-11-21T03:31:56;6.10;99.90
30150;DHT22;16962;48.646;9.026;2023-11-21T03:34:54;6.10;99.90
30150;DHT22;16962;48.646;9.026;2023-11-21T03:37:43;6.00;99.90
30150;DHT22;16962;48.646;9.026;2023-11-21T03:40:31;6.00;99.90
30150;DHT22;16962;48.646;9.026;2023-11-21T03:43:18;6.00;99.90
30150;DHT22;16962;48.646;9.026;2023-11-21T03:46:06;6.00;99.90
30150;DHT22;16962;48.646;9.026;2023-11-21T03:48:54;6.10;99.90
30150;DHT22;16962;48.646;9.026;2023-11-21T03:51:42;6.10;99.90
30150;DHT22;16962;48.646;9.026;2023-11-21T03:54:29;6.00;99.90
30150;DHT22;16962;48.646;9.026;2023-11-21T03:57:16;6.00;99.90
30150;DHT22;16962;48.646;9.026;2023-11-21T04:00:04;6.00;99.90
30150;DHT22;16962;48.646;9.026;2023-11-21T04:02:55;6.00;99.90
30150;DHT22;16962;48.646;9.026;2023-11-21T04:05:45;6.00;99.90
30150;DHT22;16962;48.646;9.026;2023-11-21T04:08:34;6.10;99.90
30150;DHT22;16962;48.646;9.026;2023-11-21T04:11:21;6.10;99.90
30150;DHT22;16962;48.646;9.026;2023-11-21T04:14:09;6.10;99.90
30150;DHT22;16962;48.646;9.026;2023-11-21T04:16:56;6.10;99.90
30150;DHT22;16962;48.646;9.026;2023-11-21T04:19:46;6.10;99.90
30150;DHT22;16962;48.646;9.026;2023-11-21T04:22:33;6.20;99.90
30150;DHT22;16962;48.646;9.026;2023-11-21T04:25:20;6.20;99.90
30150;DHT22;16962;48.646;9.026;2023-11-21T04:28:09;6.20;99.90
30150;DHT22;16962;48.646;9.026;2023-11-21T04:30:57;6.20;99.90
30150;DHT22;16962;48.646;9.026;2023-11-21T04:33:44;6.20;99.90
30150;DHT22;16962;48.646;9.026;2023-11-21T04:36:32;6.20;99.90
30150;DHT22;16962;48.646;9.026;2023-11-21T04:39:19;6.20;99.90
30150;DHT22;16962;48.646;9.026;2023-11-21T04:42:07;6.20;99.90
30150;DHT22;16962;48.646;9.026;2023-11-21T04:44:54;6.20;99.90
30150;DHT22;16962;48.646;9.026;2023-11-21T04:47:41;6.10;99.90
30150;DHT22;16962;48.646;9.026;2023-11-21T04:50:32;6.20;99.90
30150;DHT22;16962;48.646;9.026;2023-11-21T04:53:19;6.20;99.90
30150;DHT22;16962;48.646;9.026;2023-11-21T04:56:09;6.10;99.90
30150;DHT22;16962;48.646;9.026;2023-11-21T04:58:56;6.10;99.90
30150;DHT22;16962;48.646;9.026;2023-11-21T05:01:43;6.10;99.90
30150;DHT22;16962;48.646;9.026;2023-11-21T05:04:31;6.10;99.90
30150;DHT22;16962;48.646;9.026;2023-11-21T05:07:18;6.10;99.90
30150;DHT22;16962;48.646;9.026;2023-11-21T05:10:06;6.10;99.90
30150;DHT22;16962;48.646;9.026;2023-11-21T05:12:57;6.10;99.90
30150;DHT22;16962;48.646;9.026;2023-11-21T05:15:45;6.10;99.90
30150;DHT22;16962;48.646;9.026;2023-11-21T05:18:33;6.20;99.90
30150;DHT22;16962;48.646;9.026;2023-11-21T05:21:21;6.10;99.90
30150;DHT22;16962;48.646;9.026;2023-11-21T05:24:11;6.10;99.90
30150;DHT22;16962;48.646;9.026;2023-11-21T05:26:58;6.20;99.90
30150;DHT22;16962;48.646;9.026;2023-11-21T05:29:45;6.10;99.90
30150;DHT22;16962;48.646;9.026;2023-11-21T05:32:33;6.10;99.90
30150;DHT22;16962;48.646;9.026;2023-11-21T05:35:21;6.10;99.90
30150;DHT22;16962;48.646;9.026;2023-11-21T05:38:08;6.10;99.90
30150;DHT22;16962;48.646;9.026;2023-11-21T05:40:55;6.10;99.90
30150;DHT22;16962;48.646;9.026;2023-11-21T05:43:43;6.10;99.90
30150;DHT22;16962;48.646;9.026;2023-11-21T05:46:33;6.10;99.90
30150;DHT22;16962;48.646;9.026;2023-11-21T05:49:20;6.10;99.90
30150;DHT22;16962;48.646;9.026;2023-11-21T05:52:10;6.00;99.90
30150;DHT22;16962;48.646;9.026;2023-11-21T05:54:57;6.10;99.90
30150;DHT22;16962;48.646;9.026;2023-11-21T05:57:45;6.10;99.90
30150;DHT22;16962;48.646;9.026;2023-11-21T06:00:32;6.10;99.90
30150;DHT22;16962;48.646;9.026;2023-11-21T06:03:20;6.10;99.90
30150;DHT22;16962;48.646;9.026;2023-11-21T06:06:07;6.10;99.90
30150;DHT22;16962;48.646;9.026;2023-11-21T06:08:55;6.20;99.90
30150;DHT22;16962;48.646;9.026;2023-11-21T06:11:44;6.10;99.90
30150;DHT22;16962;48.646;9.026;2023-11-21T06:14:32;6.10;99.90
30150;DHT22;16962;48.646;9.026;2023-11-21T06:17:22;6.00;99.90
30150;DHT22;16962;48.646;9.026;2023-11-21T06:20:12;6.10;99.90
30150;DHT22;16962;48.646;9.026;2023-11-21T06:23:02;6.10;99.90
30150;DHT22;16962;48.646;9.026;2023-11-21T06:25:51;6.00;99.90
30150;DHT22;16962;48.646;9.026;2023-11-21T06:28:38;6.00;99.90
30150;DHT22;16962;48.646;9.026;2023-11-21T06:31:25;6.00;99.90
30150;DHT22;16962;48.646;9.026;2023-11-21T06:34:15;6.10;99.90
30150;DHT22;16962;48.646;9.026;2023-11-21T06:37:02;6.10;99.90
30150;DHT22;16962;48.646;9.026;2023-11-21T06:39:49;6.00;99.90
30150;DHT22;16962;48.646;9.026;2023-11-21T06:42:39;6.10;99.90
30150;DHT22;16962;48.646;9.026;2023-11-21T06:45:26;6.10;99.90
30150;DHT22;16962;48.646;9.026;2023-11-21T06:48:14;6.10;99.90
30150;DHT22;16962;48.646;9.026;2023-11-21T06:51:02;6.10;99.90
30150;DHT22;16962;48.646;9.026;2023-11-21T06:53:51;6.10;99.90
30150;DHT22;16962;48.646;9.026;2023-11-21T06:56:41;6.10;99.90
30150;DHT22;16962;48.646;9.026;2023-11-21T06:59:31;6.10;99.90
30150;DHT22;16962;48.646;9.026;2023-11-21T07:02:18;6.10;99.90
30150;DHT22;16962;48.646;9.026;2023-11-21T07:05:08;6.20;99.90
30150;DHT22;16962;48.646;9.026;2023-11-21T07:08:03;6.10;99.90
30150;DHT22;16962;48.646;9.026;2023-11-21T07:10:51;6.10;99.90
30150;DHT22;16962;48.646;9.026;2023-11-21T07:13:44;6.20;99.90
30150;DHT22;16962;48.646;9.026;2023-11-21T07:16:31;6.20;99.90
30150;DHT22;16962;48.646;9.026;2023-11-21T07:19:19;6.20;99.90
30150;DHT22;16962;48.646;9.026;2023-11-21T07:22:07;6.20;99.90
30150;DHT22;16962;48.646;9.026;2023-11-21T07:24:58;6.20;99.90
30150;DHT22;16962;48.646;9.026;2023-11-21T07:27:48;6.20;99.90
30150;DHT22;16962;48.646;9.026;2023-11-21T07:30:35;6.20;99.90
30150;DHT22;16962;48.646;9.026;2023-11-21T07:33:27;6.20;99.90
30150;DHT22;16962;48.646;9.026;2023-11-21T07:36:17;6.30;99.90
30150;DHT22;16962;48.646;9.026;2023-11-21T07:39:06;6.30;99.90
30150;DHT22;16962;48.646;9.026;2023-11-21T07:41:56;6.30;99.90
30150;DHT22;16962;48.646;9.026;2023-11-21T07:44:47;6.30;99.90
30150;DHT22;16962;48.646;9.026;2023-11-21T07:47:35;6.30;99.90
30150;DHT22;16962;48.646;9.026;2023-11-21T07:50:25;6.30;99.90
30150;DHT22;16962;48.646;9.026;2023-11-21T07:53:13;6.30;99.90
30150;DHT22;16962;48.646;9.026;2023-11-21T07:56:08;6.30;99.90
30150;DHT22;16962;48.646;9.026;2023-11-21T07:58:56;6.30;99.90
30150;DHT22;16962;48.646;9.026;2023-11-21T08:01:49;6.30;99.90
30150;DHT22;16962;48.646;9.026;2023-11-21T08:04:37;6.30;99.90
30150;DHT22;16962;48.646;9.026;2023-11-21T08:07:24;6.40;99.90
30150;DHT22;16962;48.646;9.026;2023-11-21T08:10:13;6.40;99.90
30150;DHT22;16962;48.646;9.026;2023-11-21T08:13:02;6.40;99.90
30150;DHT22;16962;48.646;9.026;2023-11-21T08:15:49;6.40;99.90
30150;DHT22;16962;48.646;9.026;2023-11-21T08:18:37;6.50;99.90
30150;DHT22;16962;48.646;9.026;2023-11-21T08:21:27;6.50;99.90
30150;DHT22;16962;48.646;9.026;2023-11-21T08:24:16;6.50;99.90
30150;DHT22;16962;48.646;9.026;2023-11-21T08:27:03;6.60;99.90
30150;DHT22;16962;48.646;9.026;2023-11-21T08:29:52;6.60;99.90
30150;DHT22;16962;48.646;9.026;2023-11-21T08:32:43;6.70;99.90
30150;DHT22;16962;48.646;9.026;2023-11-21T08:35:31;6.70;99.90
30150;DHT22;16962;48.646;9.026;2023-11-21T08:38:20;6.70;99.90
30150;DHT22;16962;48.646;9.026;2023-11-21T08:41:14;6.80;99.90
30150;DHT22;16962;48.646;9.026;2023-11-21T08:44:03;6.90;99.90
30150;DHT22;16962;48.646;9.026;2023-11-21T08:46:55;6.90;99.90
30150;DHT22;16962;48.646;9.026;2023-11-21T08:49:47;7.00;99.90
30150;DHT22;16962;48.646;9.026;2023-11-21T08:52:34;7.20;99.90
30150;DHT22;16962;48.646;9.026;2023-11-21T08:55:22;7.20;99.90
30150;DHT22;16962;48.646;9.026;2023-11-21T08:58:09;7.40;99.90
30150;DHT22;16962;48.646;9.026;2023-11-21T09:00:59;7.50;99.90
30150;DHT22;16962;48.646;9.026;2023-11-21T09:03:46;7.70;99.90
30150;DHT22;16962;48.646;9.026;2023-11-21T09:06:37;7.80;99.90
30150;DHT22;16962;48.646;9.026;2023-11-21T09:09:25;7.80;99.90
30150;DHT22;16962;48.646;9.026;2023-11-21T09:12:12;7.90;99.90
30150;DHT22;16962;48.646;9.026;2023-11-21T09:15:03;7.90;99.90
30150;DHT22;16962;48.646;9.026;2023-11-21T09:17:52;7.90;99.90
30150;DHT22;16962;48.646;9.026;2023-11-21T09:20:40;7.90;99.90
30150;DHT22;16962;48.646;9.026;2023-11-21T09:23:27;7.90;99.90
30150;DHT22;16962;48.646;9.026;2023-11-21T09:26:14;7.90;99.90
30150;DHT22;16962;48.646;9.026;2023-11-21T09:29:03;7.90;99.90
30150;DHT22;16962;48.646;9.026;2023-11-21T09:31:55;7.80;99.90
30150;DHT22;16962;48.646;9.026;2023-11-21T09:34:50;7.80;99.90
30150;DHT22;16962;48.646;9.026;2023-11-21T09:37:38;7.70;99.90
30150;DHT22;16962;48.646;9.026;2023-11-21T09:40:26;7.80;99.90
30150;DHT22;16962;48.646;9.026;2023-11-21T09:43:17;7.70;99.90
30150;DHT22;16962;48.646;9.026;2023-11-21T09:46:06;7.70;99.90
30150;DHT22;16962;48.646;9.026;2023-11-21T09:49:00;7.80;99.90
30150;DHT22;16962;48.646;9.026;2023-11-21T09:52:01;7.90;99.90
30150;DHT22;16962;48.646;9.026;2023-11-21T09:54:51;8.10;99.90
30150;DHT22;16962;48.646;9.026;2023-11-21T09:57:42;8.20;99.90
30150;DHT22;16962;48.646;9.026;2023-11-21T10:00:30;8.30;99.90
30150;DHT22;16962;48.646;9.026;2023-11-21T10:03:20;8.20;99.90
30150;DHT22;16962;48.646;9.026;2023-11-21T10:06:13;8.10;99.90
30150;DHT22;16962;48.646;9.026;2023-11-21T10:09:04;8.00;99.90
30150;DHT22;16962;48.646;9.026;2023-11-21T10:12:02;7.90;99.90
30150;DHT22;16962;48.646;9.026;2023-11-21T10:14:57;7.70;99.90
30150;DHT22;16962;48.646;9.026;2023-11-21T10:18:02;7.60;99.90
30150;DHT22;16962;48.646;9.026;2023-11-21T10:20:54;7.50;99.90
30150;DHT22;16962;48.646;9.026;2023-11-21T10:23:43;7.40;99.90
30150;DHT22;16962;48.646;9.026;2023-11-21T10:26:39;7.30;99.90
30150;DHT22;16962;48.646;9.026;2023-11-21T10:29:41;7.30;99.90
30150;DHT22;16962;48.646;9.026;2023-11-21T10:32:31;7.30;99.90
30150;DHT22;16962;48.646;9.026;2023-11-21T10:35:20;7.40;99.90
30150;DHT22;16962;48.646;9.026;2023-11-21T10:38:08;7.40;99.90
30150;DHT22;16962;48.646;9.026;2023-11-21T10:41:02;7.40;99.90
30150;DHT22;16962;48.646;9.026;2023-11-21T10:43:53;7.40;99.90
30150;DHT22;16962;48.646;9.026;2023-11-21T10:46:46;7.30;99.90
30150;DHT22;16962;48.646;9.026;2023-11-21T10:49:38;7.30;99.90
30150;DHT22;16962;48.646;9.026;2023-11-21T10:52:27;7.30;99.90
30150;DHT22;16962;48.646;9.026;2023-11-21T10:55:18;7.40;99.90
30150;DHT22;16962;48.646;9.026;2023-11-21T10:58:13;7.40;99.90
30150;DHT22;16962;48.646;9.026;2023-11-21T11:01:06;7.40;99.90
30150;DHT22;16962;48.646;9.026;2023-11-21T11:03:54;7.50;99.90
30150;DHT22;16962;48.646;9.026;2023-11-21T11:06:52;7.60;99.90
30150;DHT22;16962;48.646;9.026;2023-11-21T11:09:43;7.70;99.90
30150;DHT22;16962;48.646;9.026;2023-11-21T11:12:32;7.70;99.90
30150;DHT22;16962;48.646;9.026;2023-11-21T11:15:20;7.70;99.90
30150;DHT22;16962;48.646;9.026;2023-11-21T11:18:10;7.70;99.90
30150;DHT22;16962;48.646;9.026;2023-11-21T11:21:11;7.80;99.90
30150;DHT22;16962;48.646;9.026;2023-11-21T11:24:41;7.80;99.90
30150;DHT22;16962;48.646;9.026;2023-11-21T11:34:23;7.90;99.90
30150;DHT22;16962;48.646;9.026;2023-11-21T11:37:08;8.10;99.90
30150;DHT22;16962;48.646;9.026;2023-11-21T11:39:59;8.30;99.90
30150;DHT22;16962;48.646;9.026;2023-11-21T11:42:57;8.30;99.90
30150;DHT22;16962;48.646;9.026;2023-11-21T11:45:48;8.40;99.90
30150;DHT22;16962;48.646;9.026;2023-11-21T11:48:39;8.30;99.90
30150;DHT22;16962;48.646;9.026;2023-11-21T11:51:32;8.30;99.90
30150;DHT22;16962;48.646;9.026;2023-11-21T11:54:35;8.20;99.90
30150;DHT22;16962;48.646;9.026;2023-11-21T11:57:25;8.20;99.90
30150;DHT22;16962;48.646;9.026;2023-11-21T12:00:19;8.20;99.90
30150;DHT22;16962;48.646;9.026;2023-11-21T12:03:09;8.20;99.90
30150;DHT22;16962;48.646;9.026;2023-11-21T12:06:00;8.20;99.90
30150;DHT22;16962;48.646;9.026;2023-11-21T12:08:47;8.20;99.90
30150;DHT22;16962;48.646;9.026;2023-11-21T12:11:36;8.20;99.90
30150;DHT22;16962;48.646;9.026;2023-11-21T12:14:27;8.10;99.90
30150;DHT22;16962;48.646;9.026;2023-11-21T12:17:20;8.10;99.90
30150;DHT22;16962;48.646;9.026;2023-11-21T12:20:15;8.10;99.90
30150;DHT22;16962;48.646;9.026;2023-11-21T12:23:05;8.10;99.90
30150;DHT22;16962;48.646;9.026;2023-11-21T12:25:53;8.00;99.90
30150;DHT22;16962;48.646;9.026;2023-11-21T12:28:43;7.90;99.90
30150;DHT22;16962;48.646;9.026;2023-11-21T12:31:33;7.90;99.90
30150;DHT22;16962;48.646;9.026;2023-11-21T12:34:23;7.80;99.90
30150;DHT22;16962;48.646;9.026;2023-11-21T12:37:10;7.80;99.90
30150;DHT22;16962;48.646;9.026;2023-11-21T12:39:58;7.80;99.90
30150;DHT22;16962;48.646;9.026;2023-11-21T13:16:31;8.80;99.90
30150;DHT22;16962;48.646;9.026;2023-11-21T13:51:48;9.10;99.90
30150;DHT22;16962;48.646;9.026;2023-11-21T13:54:47;8.80;99.90
30150;DHT22;16962;48.646;9.026;2023-11-21T13:57:35;8.60;99.90
30150;DHT22;16962;48.646;9.026;2023-11-21T14:00:22;8.40;99.90
30150;DHT22;16962;48.646;9.026;2023-11-21T14:03:33;8.20;99.90
30150;DHT22;16962;48.646;9.026;2023-11-21T14:06:39;8.10;99.90
30150;DHT22;16962;48.646;9.026;2023-11-21T14:09:37;7.90;99.90
30150;DHT22;16962;48.646;9.026;2023-11-21T14:12:34;7.90;99.90
30150;DHT22;16962;48.646;9.026;2023-11-21T14:15:27;7.90;99.90
30150;DHT22;16962;48.646;9.026;2023-11-21T14:18:18;7.80;99.90
30150;DHT22;16962;48.646;9.026;2023-11-21T14:21:16;7.80;99.90
30150;DHT22;16962;48.646;9.026;2023-11-21T14:24:06;7.80;99.90
30150;DHT22;16962;48.646;9.026;2023-11-21T14:26:57;7.80;99.90
30150;DHT22;16962;48.646;9.026;2023-11-21T14:29:47;7.80;99.90
30150;DHT22;16962;48.646;9.026;2023-11-21T14:32:38;7.80;99.90
30150;DHT22;16962;48.646;9.026;2023-11-21T14:35:28;7.90;99.90
30150;DHT22;16962;48.646;9.026;2023-11-21T14:38:19;7.80;99.90
30150;DHT22;16962;48.646;9.026;2023-11-21T14:41:09;7.80;99.90
30150;DHT22;16962;48.646;9.026;2023-11-21T14:43:58;7.70;99.90
30150;DHT22;16962;48.646;9.026;2023-11-21T14:46:49;7.70;99.90
30150;DHT22;16962;48.646;9.026;2023-11-21T14:49:38;7.70;99.90
30150;DHT22;16962;48.646;9.026;2023-11-21T14:52:43;7.70;99.90
30150;DHT22;16962;48.646;9.026;2023-11-21T14:55:45;7.70;99.90
30150;DHT22;16962;48.646;9.026;2023-11-21T14:58:38;7.70;99.90
30150;DHT22;16962;48.646;9.026;2023-11-21T15:01:34;7.70;99.90
30150;DHT22;16962;48.646;9.026;2023-11-21T15:04:42;7.70;99.90
30150;DHT22;16962;48.646;9.026;2023-11-21T15:07:49;7.60;99.90
30150;DHT22;16962;48.646;9.026;2023-11-21T15:10:44;7.50;99.90
30150;DHT22;16962;48.646;9.026;2023-11-21T15:13:44;7.50;99.90
30150;DHT22;16962;48.646;9.026;2023-11-21T15:16:38;7.40;99.90
30150;DHT22;16962;48.646;9.026;2023-11-21T15:19:34;7.40;99.90
30150;DHT22;16962;48.646;9.026;2023-11-21T15:22:23;7.30;99.90
30150;DHT22;16962;48.646;9.026;2023-11-21T15:25:17;7.30;99.90
30150;DHT22;16962;48.646;9.026;2023-11-21T15:28:05;7.30;99.90
30150;DHT22;16962;48.646;9.026;2023-11-21T15:30:55;7.30;99.90
30150;DHT22;16962;48.646;9.026;2023-11-21T15:33:44;7.20;99.90
30150;DHT22;16962;48.646;9.026;2023-11-21T15:36:33;7.20;99.90
30150;DHT22;16962;48.646;9.026;2023-11-21T15:39:21;7.20;99.90
30150;DHT22;16962;48.646;9.026;2023-11-21T15:42:21;7.20;99.90
30150;DHT22;16962;48.646;9.026;2023-11-21T15:45:13;7.20;99.90
30150;DHT22;16962;48.646;9.026;2023-11-21T15:48:00;7.10;99.90
30150;DHT22;16962;48.646;9.026;2023-11-21T15:50:56;7.10;99.90
30150;DHT22;16962;48.646;9.026;2023-11-21T15:53:48;7.10;99.90
30150;DHT22;16962;48.646;9.026;2023-11-21T15:56:38;7.10;99.90
30150;DHT22;16962;48.646;9.026;2023-11-21T15:59:26;7.10;99.90
30150;DHT22;16962;48.646;9.026;2023-11-21T16:02:19;7.10;99.90
30150;DHT22;16962;48.646;9.026;2023-11-21T16:05:07;7.10;99.90
30150;DHT22;16962;48.646;9.026;2023-11-21T16:07:55;7.10;99.90
30150;DHT22;16962;48.646;9.026;2023-11-21T16:10:43;7.00;99.90
30150;DHT22;16962;48.646;9.026;2023-11-21T16:13:30;7.00;99.90
30150;DHT22;16962;48.646;9.026;2023-11-21T16:16:21;7.00;99.90
30150;DHT22;16962;48.646;9.026;2023-11-21T16:19:09;7.00;99.90
30150;DHT22;16962;48.646;9.026;2023-11-21T16:21:57;7.00;99.90
30150;DHT22;16962;48.646;9.026;2023-11-21T16:24:44;6.90;99.90
30150;DHT22;16962;48.646;9.026;2023-11-21T16:27:37;6.90;99.90
30150;DHT22;16962;48.646;9.026;2023-11-21T16:30:25;6.90;99.90
30150;DHT22;16962;48.646;9.026;2023-11-21T16:33:13;6.90;99.90
30150;DHT22;16962;48.646;9.026;2023-11-21T16:36:01;6.80;99.90
30150;DHT22;16962;48.646;9.026;2023-11-21T16:38:48;6.80;99.90
30150;DHT22;16962;48.646;9.026;2023-11-21T16:41:36;6.80;99.90
30150;DHT22;16962;48.646;9.026;2023-11-21T16:44:23;6.80;99.90
30150;DHT22;16962;48.646;9.026;2023-11-21T16:47:11;6.80;99.90
30150;DHT22;16962;48.646;9.026;2023-11-21T16:49:59;6.80;99.90
30150;DHT22;16962;48.646;9.026;2023-11-21T16:52:47;6.70;99.90
30150;DHT22;16962;48.646;9.026;2023-11-21T16:55:38;6.80;99.90
30150;DHT22;16962;48.646;9.026;2023-11-21T16:58:25;6.70;99.90
30150;DHT22;16962;48.646;9.026;2023-11-21T17:01:13;6.70;99.90
30150;DHT22;16962;48.646;9.026;2023-11-21T17:04:00;6.80;99.90
30150;DHT22;16962;48.646;9.026;2023-11-21T17:06:49;6.70;99.90
30150;DHT22;16962;48.646;9.026;2023-11-21T17:09:38;6.70;99.90
30150;DHT22;16962;48.646;9.026;2023-11-21T17:12:26;6.70;99.90
30150;DHT22;16962;48.646;9.026;2023-11-21T17:15:17;6.70;99.90
30150;DHT22;16962;48.646;9.026;2023-11-21T17:18:06;6.70;99.90
30150;DHT22;16962;48.646;9.026;2023-11-21T17:20:55;6.60;99.90
30150;DHT22;16962;48.646;9.026;2023-11-21T17:23:43;6.50;99.90
30150;DHT22;16962;48.646;9.026;2023-11-21T17:26:32;6.40;99.90
30150;DHT22;16962;48.646;9.026;2023-11-21T17:29:21;6.20;99.90
30150;DHT22;16962;48.646;9.026;2023-11-21T17:32:09;6.10;99.90
30150;DHT22;16962;48.646;9.026;2023-11-21T17:35:00;6.00;99.90
30150;DHT22;16962;48.646;9.026;2023-11-21T17:37:48;5.90;99.90
30150;DHT22;16962;48.646;9.026;2023-11-21T17:40:36;5.80;99.90
30150;DHT22;16962;48.646;9.026;2023-11-21T17:43:26;5.70;99.90
30150;DHT22;16962;48.646;9.026;2023-11-21T17:46:25;5.60;99.90
30150;DHT22;16962;48.646;9.026;2023-11-21T17:49:12;5.60;99.90
30150;DHT22;16962;48.646;9.026;2023-11-21T17:52:00;5.50;99.90
30150;DHT22;16962;48.646;9.026;2023-11-21T17:54:47;5.50;99.90
30150;DHT22;16962;48.646;9.026;2023-11-21T17:57:35;5.40;99.90
30150;DHT22;16962;48.646;9.026;2023-11-21T18:00:25;5.40;99.90
30150;DHT22;16962;48.646;9.026;2023-11-21T18:03:13;5.40;99.90
30150;DHT22;16962;48.646;9.026;2023-11-21T18:06:01;5.40;99.90
30150;DHT22;16962;48.646;9.026;2023-11-21T18:08:49;5.50;99.90
30150;DHT22;16962;48.646;9.026;2023-11-21T18:11:39;5.60;99.90
30150;DHT22;16962;48.646;9.026;2023-11-21T18:14:29;5.70;99.90
30150;DHT22;16962;48.646;9.026;2023-11-21T18:17:19;5.70;99.90
30150;DHT22;16962;48.646;9.026;2023-11-21T18:20:10;5.80;99.90
30150;DHT22;16962;48.646;9.026;2023-11-21T18:22:58;5.90;99.90
30150;DHT22;16962;48.646;9.026;2023-11-21T18:25:48;6.00;99.90
30150;DHT22;16962;48.646;9.026;2023-11-21T18:28:38;6.10;99.90
30150;DHT22;16962;48.646;9.026;2023-11-21T18:31:28;6.10;99.90
30150;DHT22;16962;48.646;9.026;2023-11-21T18:34:17;6.20;99.90
30150;DHT22;16962;48.646;9.026;2023-11-21T18:37:05;6.20;99.90
30150;DHT22;16962;48.646;9.026;2023-11-21T18:39:53;6.20;99.90
30150;DHT22;16962;48.646;9.026;2023-11-21T18:42:41;6.30;99.90
30150;DHT22;16962;48.646;9.026;2023-11-21T18:45:32;6.30;99.90
30150;DHT22;16962;48.646;9.026;2023-11-21T18:48:22;6.30;99.90
30150;DHT22;16962;48.646;9.026;2023-11-21T18:51:12;6.40;99.90
30150;DHT22;16962;48.646;9.026;2023-11-21T18:54:00;6.40;99.90
30150;DHT22;16962;48.646;9.026;2023-11-21T18:56:47;6.40;99.90
30150;DHT22;16962;48.646;9.026;2023-11-21T18:59:35;6.40;99.90
30150;DHT22;16962;48.646;9.026;2023-11-21T19:02:23;6.40;99.90
30150;DHT22;16962;48.646;9.026;2023-11-21T19:05:13;6.40;99.90
30150;DHT22;16962;48.646;9.026;2023-11-21T19:08:05;6.40;99.90
30150;DHT22;16962;48.646;9.026;2023-11-21T19:10:53;6.50;99.90
30150;DHT22;16962;48.646;9.026;2023-11-21T19:13:41;6.50;99.90
30150;DHT22;16962;48.646;9.026;2023-11-21T19:16:29;6.50;99.90
30150;DHT22;16962;48.646;9.026;2023-11-21T19:19:16;6.50;99.90
30150;DHT22;16962;48.646;9.026;2023-11-21T19:22:07;6.50;99.90